Beale Air Force Base
KBAB : now visible

Airfield :











YOU CAN JOIN US ON...

 
LOGIN :

Register | Disclaimer

   EN    FR    IT 

 









Legend :    VFR   Marginal VFR   IFR   Intensive IFR   Very Intensive IFR
Visi :
Ceiling :
>= 8 km
>= 3000ft
5 to 8 km
1000 to 3000 ft
1500m to 5 km
500 to 1000 ft
800 to 1500m
200 to 500 ft
< 800m
< 200 ft
Symbols :   Thunderstorms  Fog  Heavy snow  Heavy precipitations  Wind > 20 kt






- Airport Elevation : 113 ft


KBAB - Beale Air Force Base

CURRENT METAR :
  • 050458Z AUTO 10005KT 10SM CLR 27/10 A2991 RMK AO2 SLP131 T02690101 $

EXPIRED METARs :
  • 050358Z AUTO 18003KT 10SM CLR 27/15 A2990 RMK AO2 SLP127 T02670148 $
  • 050258Z AUTO 21005KT 10SM CLR 33/08 A2990 RMK AO2 SLP127 T03270082 55007 $

Expired Forecast.
KZOA FIR / North America



MET'MAP, your aeronautical weather chart ! - Copyright ORBIFLY December 2007 - Disclaimer

ORBIFLY MET'MAP TEAM :

Programming & Development : Alexandra Zaïnal
Concept & original design : Baudouin d'Aumeries
Assistance for programming : Marc-Olivier Méhu
Technical & hardware support : Manuel Goepfert

Contact : metmap@orbifly.com




SOURCES & CREDITS :

   NOAA       Earth
Advisory